Wichita Mid Continent Airport
KICT : now visible

Airfield :











YOU CAN JOIN US ON...

 
LOGIN :

Register | Disclaimer

   EN    FR    IT 

 









Legend :    VFR   Marginal VFR   IFR   Intensive IFR   Very Intensive IFR
Visi :
Ceiling :
>= 8 km
>= 3000ft
5 to 8 km
1000 to 3000 ft
1500m to 5 km
500 to 1000 ft
800 to 1500m
200 to 500 ft
< 800m
< 200 ft
Symbols :   Thunderstorms  Fog  Heavy snow  Heavy precipitations  Wind > 20 kt







- Airport Elevation : 1333 ft
- IATA code : ICT


KICT - Wichita Mid Continent

CURRENT METAR :
  • 232153Z 18015G22KT 10SM SCT200 SCT250 40/16 A2982 RMK AO2 SLP078 T04000156

EXPIRED METARs :
  • 232053Z 17019G22KT 10SM SCT200 BKN259 40/17 A2983 RMK AO2 SLP082 T04000167 56023
  • 231953Z 17015G26KT 10SM SCT200 BKN250 39/17 A2985 RMK AO2 PK WND 20026/1947 SLP089 T03940167

TAF KICT
Valid from the 23 at 18:00 until the 24 at 18:00 UTC


231720Z 2318/2418 20014G23KT P6SM FEW200
FM240100 16012KT P6SM SKC
FM240700 17008KT P6SM FEW200 WS020/22035KT
FM241400 20008KT P6SM SCT200
KZKC FIR / North America



MET'MAP, your aeronautical weather chart ! - Copyright ORBIFLY December 2007 - Disclaimer

ORBIFLY MET'MAP TEAM :

Programming & Development : Alexandra Zaïnal
Concept & Development : Baudouin d'Aumeries
Co-Development & Prog : Marc-Olivier Méhu
Technical & hardware support : Manuel Goepfert

Contact : metmap@orbifly.com




SOURCES & CREDITS :

   NOAA       Earth
Advisory